Time;durP1;ratioP1;P1;durP2;ratioP2;P2;SDS_P1;SDS_P2;PMS_P1;PMS_P2;Temp;Humidity;BMP_temperature;BMP_pressure;BME280_temperature;BME280_humidity;BME280_pressure;Samples;Min_cycle;Max_cycle;Signal;HPM_P1;HPM_P2
2023/04/21 00:01:59;;;;;;;9.10;4.78;;;23.90;99.90;;;;;;5011110;28;20073;-54
2023/04/21 00:04:26;;;;;;;10.20;5.65;;;23.90;99.90;;;;;;5014976;28;20065;-54
2023/04/21 00:06:52;;;;;;;8.77;6.00;;;23.90;99.90;;;;;;5014609;28;20180;-54
2023/04/21 00:09:18;;;;;;;8.23;5.90;;;23.90;99.90;;;;;;5014821;28;20403;-54
2023/04/21 00:11:43;;;;;;;8.27;5.40;;;23.90;99.90;;;;;;4997093;28;20026;-54
2023/04/21 00:14:09;;;;;;;9.05;5.60;;;23.90;99.90;;;;;;5014766;28;20104;-54
2023/04/21 00:16:35;;;;;;;9.27;6.15;;;23.90;99.90;;;;;;5014771;28;20030;-54
2023/04/21 00:19:05;;;;;;;9.25;5.80;;;23.90;99.90;;;;;;4996888;28;20156;-54
2023/04/21 00:21:31;;;;;;;8.85;5.88;;;23.80;99.90;;;;;;5014707;28;20472;-54
2023/04/21 00:23:57;;;;;;;8.85;6.07;;;23.80;99.90;;;;;;5014516;28;20026;-52
2023/04/21 00:26:23;;;;;;;8.68;5.97;;;23.80;99.90;;;;;;5014243;28;20076;-52
2023/04/21 00:28:49;;;;;;;10.55;6.07;;;23.80;99.90;;;;;;5014191;28;20101;-54
2023/04/21 00:31:15;;;;;;;8.45;5.70;;;23.80;99.90;;;;;;4996892;28;20064;-53
2023/04/21 00:33:40;;;;;;;8.98;6.00;;;23.80;99.90;;;;;;5014030;28;20046;-52
2023/04/21 00:36:06;;;;;;;8.77;5.68;;;23.80;99.90;;;;;;5014258;28;20030;-54
2023/04/21 00:38:32;;;;;;;9.60;6.18;;;23.80;99.90;;;;;;4996537;28;20026;-54
2023/04/21 00:40:58;;;;;;;7.80;5.35;;;23.80;99.90;;;;;;5014228;28;20065;-53
2023/04/21 00:43:27;;;;;;;11.77;6.40;;;23.80;99.90;;;;;;5013933;28;20026;-52
2023/04/21 00:45:52;;;;;;;9.02;6.10;;;23.80;99.90;;;;;;5014049;28;20026;-53
2023/04/21 00:48:18;;;;;;;9.10;6.10;;;23.80;99.90;;;;;;5012873;28;20543;-54
2023/04/21 00:50:44;;;;;;;11.25;6.28;;;23.80;99.90;;;;;;5014080;28;20490;-53
2023/04/21 00:53:11;;;;;;;9.13;6.53;;;23.80;99.90;;;;;;5013868;28;20030;-53
2023/04/21 00:55:37;;;;;;;8.40;5.75;;;23.80;99.90;;;;;;5013632;28;20033;-55
2023/04/21 00:58:03;;;;;;;9.07;5.90;;;23.70;99.90;;;;;;5013838;28;20034;-53
2023/04/21 01:00:29;;;;;;;11.20;6.18;;;23.80;99.90;;;;;;5013928;28;20050;-54
2023/04/21 01:02:55;;;;;;;9.98;6.22;;;23.80;99.90;;;;;;5013861;28;20026;-54
2023/04/21 01:05:21;;;;;;;9.15;5.70;;;23.70;99.90;;;;;;5013477;28;20029;-53
2023/04/21 01:07:48;;;;;;;12.43;6.45;;;23.70;99.90;;;;;;4996643;28;20403;-54
2023/04/21 01:10:14;;;;;;;11.35;6.38;;;23.70;99.90;;;;;;4995734;28;20391;-54
2023/04/21 01:12:44;;;;;;;7.78;6.00;;;23.70;99.90;;;;;;5013480;28;20051;-54
2023/04/21 01:15:14;;;;;;;9.07;6.10;;;23.70;99.90;;;;;;5013203;28;20018;-52
2023/04/21 01:17:40;;;;;;;8.32;5.95;;;23.70;99.90;;;;;;5013625;28;20050;-53
2023/04/21 01:20:15;;;;;;;9.25;5.93;;;23.70;99.90;;;;;;5013382;28;20426;-54
2023/04/21 01:22:43;;;;;;;8.18;5.65;;;23.60;99.90;;;;;;5013429;28;20032;-52
2023/04/21 01:25:09;;;;;;;9.07;5.65;;;23.70;99.90;;;;;;5013156;28;20030;-53
2023/04/21 01:27:35;;;;;;;9.13;5.88;;;23.70;99.90;;;;;;5013740;28;20018;-54
2023/04/21 01:30:01;;;;;;;9.52;5.75;;;23.70;99.90;;;;;;5013072;28;20471;-53
2023/04/21 01:32:28;;;;;;;8.50;5.97;;;23.70;99.90;;;;;;5013391;28;20064;-53
2023/04/21 01:34:55;;;;;;;10.27;6.57;;;23.60;99.90;;;;;;5013253;28;20026;-53
2023/04/21 01:37:25;;;;;;;10.53;7.00;;;23.70;99.90;;;;;;5013434;28;20034;-54
2023/04/21 01:39:53;;;;;;;8.65;6.15;;;23.60;99.90;;;;;;5013408;28;20065;-54
2023/04/21 01:42:20;;;;;;;8.02;5.68;;;23.60;99.90;;;;;;5013046;28;20050;-54
2023/04/21 01:44:48;;;;;;;8.50;5.63;;;23.60;99.90;;;;;;4979438;28;20486;-55
2023/04/21 01:47:15;;;;;;;7.72;5.90;;;23.60;99.90;;;;;;5012860;28;20436;-54
2023/04/21 01:49:41;;;;;;;9.60;7.07;;;23.60;99.90;;;;;;5013081;28;20134;-54
2023/04/21 01:52:07;;;;;;;9.45;6.70;;;23.60;99.90;;;;;;5012928;28;20326;-54
2023/04/21 01:54:33;;;;;;;7.35;5.60;;;23.60;99.90;;;;;;5012955;28;20054;-54
2023/04/21 01:56:59;;;;;;;8.27;6.20;;;23.60;99.90;;;;;;5012516;28;20021;-54
2023/04/21 01:59:25;;;;;;;10.82;6.05;;;23.60;99.90;;;;;;4994979;28;20038;-53
2023/04/21 02:01:51;;;;;;;9.73;6.53;;;23.60;99.90;;;;;;5012584;28;20037;-53
2023/04/21 02:04:16;;;;;;;9.10;6.07;;;23.60;99.90;;;;;;5012698;28;20022;-52
2023/04/21 02:06:42;;;;;;;9.30;6.60;;;23.60;99.90;;;;;;5012859;28;20029;-53
2023/04/21 02:09:08;;;;;;;9.45;6.93;;;23.60;99.90;;;;;;5012201;28;20101;-53
2023/04/21 02:11:34;;;;;;;8.77;6.47;;;23.50;99.90;;;;;;5012646;28;20049;-53
2023/04/21 02:13:59;;;;;;;9.30;6.32;;;23.60;99.90;;;;;;5012565;28;20109;-55
2023/04/21 02:16:25;;;;;;;9.10;6.55;;;23.50;99.90;;;;;;5012701;28;20051;-53
2023/04/21 02:18:56;;;;;;;9.85;6.60;;;23.60;99.90;;;;;;5012215;28;20058;-54
2023/04/21 02:21:22;;;;;;;7.40;5.95;;;23.50;99.90;;;;;;5012562;28;20029;-51
2023/04/21 02:23:49;;;;;;;10.03;6.43;;;23.50;99.90;;;;;;5012714;28;20096;-52
2023/04/21 02:26:15;;;;;;;8.85;6.50;;;23.50;99.90;;;;;;4994820;28;20040;-52
2023/04/21 02:28:41;;;;;;;8.80;6.53;;;23.50;99.90;;;;;;5012268;28;20034;-51
2023/04/21 02:31:07;;;;;;;9.93;6.93;;;23.50;99.90;;;;;;5012408;28;20028;-52
2023/04/21 02:33:33;;;;;;;7.85;5.97;;;23.50;99.90;;;;;;5012174;28;20121;-52
2023/04/21 02:35:59;;;;;;;8.80;6.35;;;23.50;99.90;;;;;;5012023;28;20479;-51
2023/04/21 02:38:25;;;;;;;9.68;6.32;;;23.50;99.90;;;;;;5012557;28;20022;-52
2023/04/21 02:40:50;;;;;;;10.15;6.82;;;23.50;99.90;;;;;;5012192;28;20041;-52
2023/04/21 02:43:17;;;;;;;8.13;6.07;;;23.40;99.90;;;;;;5011923;28;20022;-50
2023/04/21 02:45:42;;;;;;;8.60;6.57;;;23.40;99.90;;;;;;5011852;28;20026;-52
2023/04/21 02:48:08;;;;;;;10.05;6.90;;;23.40;99.90;;;;;;5011882;28;20163;-52
2023/04/21 02:50:34;;;;;;;8.82;6.80;;;23.50;99.90;;;;;;5011987;28;20030;-52
2023/04/21 02:53:00;;;;;;;10.18;6.30;;;23.40;99.90;;;;;;5012023;28;20026;-52
2023/04/21 02:55:26;;;;;;;10.70;6.88;;;23.40;99.90;;;;;;5011867;28;20088;-52
2023/04/21 02:57:52;;;;;;;9.95;6.78;;;23.40;99.90;;;;;;5012104;28;20072;-52
2023/04/21 03:00:19;;;;;;;9.52;6.75;;;23.40;99.90;;;;;;5012262;28;20056;-53
2023/04/21 03:02:45;;;;;;;10.35;6.28;;;23.40;99.90;;;;;;4994427;28;20538;-52
2023/04/21 03:05:11;;;;;;;10.65;6.68;;;23.40;99.90;;;;;;5012215;28;20106;-53
2023/04/21 03:07:37;;;;;;;8.95;6.60;;;23.40;99.90;;;;;;5011926;28;20121;-53
2023/04/21 03:10:05;;;;;;;9.50;6.53;;;23.40;99.90;;;;;;5011873;28;20044;-53
2023/04/21 03:12:31;;;;;;;8.40;6.53;;;23.40;99.90;;;;;;5014915;28;20376;-53
2023/04/21 03:14:57;;;;;;;10.55;6.20;;;23.40;99.90;;;;;;5015953;28;20030;-53
2023/04/21 03:17:23;;;;;;;8.88;6.43;;;23.30;99.90;;;;;;5015881;28;20018;-54
2023/04/21 03:19:49;;;;;;;7.78;6.18;;;23.40;99.90;;;;;;5015603;28;20045;-53
2023/04/21 03:22:15;;;;;;;8.23;6.00;;;23.30;99.90;;;;;;5015664;28;20420;-54
2023/04/21 03:24:41;;;;;;;8.60;6.00;;;23.30;99.90;;;;;;5015821;28;20109;-53
2023/04/21 03:27:07;;;;;;;9.00;6.07;;;23.30;99.90;;;;;;4997814;28;20072;-51
2023/04/21 03:29:32;;;;;;;7.13;5.25;;;23.30;99.90;;;;;;5015332;28;20037;-51
2023/04/21 03:31:58;;;;;;;9.63;5.70;;;23.30;99.90;;;;;;5015180;28;20025;-51
2023/04/21 03:34:24;;;;;;;8.05;5.63;;;23.30;99.90;;;;;;5015571;28;20022;-51
2023/04/21 03:36:50;;;;;;;8.60;6.25;;;23.30;99.90;;;;;;5015373;28;20088;-51
2023/04/21 03:39:15;;;;;;;9.45;5.78;;;23.30;99.90;;;;;;5015147;28;20037;-51
2023/04/21 03:41:41;;;;;;;9.38;5.40;;;23.30;99.90;;;;;;5015360;28;20026;-51
2023/04/21 03:44:07;;;;;;;7.55;5.50;;;23.30;99.90;;;;;;4997578;28;20518;-52
2023/04/21 03:46:32;;;;;;;8.32;5.47;;;23.30;99.90;;;;;;5015037;28;20022;-52
2023/04/21 03:48:58;;;;;;;9.93;5.90;;;23.30;99.90;;;;;;4997261;28;20022;-52
2023/04/21 03:51:24;;;;;;;9.15;6.03;;;23.30;99.90;;;;;;5015391;28;20029;-52
2023/04/21 03:53:50;;;;;;;7.95;5.47;;;23.30;99.90;;;;;;5015170;28;20026;-55
2023/04/21 03:56:15;;;;;;;7.07;4.90;;;23.30;99.90;;;;;;5015014;28;20436;-51
2023/04/21 03:58:41;;;;;;;8.27;5.82;;;23.20;99.90;;;;;;5014561;28;20025;-53
2023/04/21 04:01:07;;;;;;;8.00;5.60;;;23.20;99.90;;;;;;5015937;28;20045;-53
2023/04/21 04:03:33;;;;;;;8.63;6.22;;;23.20;99.90;;;;;;5014631;28;20030;-53
2023/04/21 04:05:59;;;;;;;8.43;6.20;;;23.20;99.90;;;;;;5015079;28;20026;-51
2023/04/21 04:08:25;;;;;;;8.40;5.50;;;23.30;99.90;;;;;;4997227;28;20018;-51
2023/04/21 04:10:51;;;;;;;9.43;5.53;;;23.20;99.90;;;;;;5014819;28;20056;-51
2023/04/21 04:13:17;;;;;;;10.70;5.70;;;23.20;99.90;;;;;;5014517;28;20486;-50
2023/04/21 04:15:42;;;;;;;7.95;5.82;;;23.20;99.90;;;;;;5014609;28;20479;-51
2023/04/21 04:18:08;;;;;;;7.13;5.28;;;23.20;99.90;;;;;;5014706;28;20068;-52
2023/04/21 04:20:34;;;;;;;8.52;5.53;;;23.20;99.90;;;;;;4996869;28;20565;-51
2023/04/21 04:23:00;;;;;;;8.20;5.75;;;23.20;99.90;;;;;;5014360;28;20018;-53
2023/04/21 04:25:26;;;;;;;7.50;5.35;;;23.20;99.90;;;;;;4997041;28;20022;-54
2023/04/21 04:27:52;;;;;;;6.28;4.70;;;23.20;99.90;;;;;;4997124;28;20018;-51
2023/04/21 04:30:18;;;;;;;7.50;5.45;;;23.20;99.90;;;;;;5014105;28;20064;-51
2023/04/21 04:32:44;;;;;;;8.32;5.95;;;23.20;99.90;;;;;;4996957;28;20081;-51
2023/04/21 04:35:11;;;;;;;7.07;4.97;;;23.20;99.90;;;;;;5014182;28;20029;-52
2023/04/21 04:37:38;;;;;;;10.25;5.82;;;23.20;99.90;;;;;;5014543;28;20407;-52
2023/04/21 04:40:05;;;;;;;9.07;4.80;;;23.10;99.90;;;;;;5013838;28;20621;-54
2023/04/21 04:42:32;;;;;;;5.82;4.75;;;23.20;99.90;;;;;;5014424;28;20014;-54
2023/04/21 04:44:58;;;;;;;8.95;6.03;;;23.20;99.90;;;;;;5014384;28;20030;-53
2023/04/21 04:47:24;;;;;;;6.78;5.30;;;23.20;99.90;;;;;;5014018;28;20018;-53
2023/04/21 04:49:50;;;;;;;7.55;5.43;;;23.20;99.90;;;;;;5013997;28;20037;-53
2023/04/21 04:52:16;;;;;;;6.85;5.25;;;23.20;99.90;;;;;;4980216;28;20022;-52
2023/04/21 04:54:41;;;;;;;6.57;4.80;;;23.10;99.90;;;;;;5014239;28;20030;-53
2023/04/21 04:57:07;;;;;;;6.68;5.05;;;23.10;99.90;;;;;;5013799;28;20025;-54
2023/04/21 04:59:33;;;;;;;7.60;5.03;;;23.10;99.90;;;;;;5013703;28;20354;-53
2023/04/21 05:01:59;;;;;;;7.18;5.25;;;23.10;99.90;;;;;;5013922;28;20026;-53
2023/04/21 05:04:24;;;;;;;6.10;4.30;;;23.10;99.90;;;;;;5013827;28;20022;-53
2023/04/21 05:06:51;;;;;;;7.03;4.05;;;23.10;99.90;;;;;;5013600;28;20032;-54
2023/04/21 05:09:16;;;;;;;6.22;4.22;;;23.10;99.90;;;;;;4984958;28;20068;-54
2023/04/21 05:11:42;;;;;;;6.88;4.65;;;23.10;99.90;;;;;;5013587;28;20026;-52
2023/04/21 05:14:08;;;;;;;6.45;4.13;;;23.10;99.90;;;;;;5013507;28;20083;-53
2023/04/21 05:16:34;;;;;;;6.85;4.15;;;23.10;99.90;;;;;;5013667;28;20029;-53
2023/04/21 05:19:03;;;;;;;6.55;4.47;;;23.10;99.90;;;;;;5013346;28;20034;-52
2023/04/21 05:21:30;;;;;;;5.53;4.20;;;23.10;99.90;;;;;;4995976;28;20502;-53
2023/04/21 05:23:57;;;;;;;5.25;3.75;;;23.10;99.90;;;;;;4984187;28;20025;-52
2023/04/21 05:26:24;;;;;;;5.47;3.85;;;23.10;99.90;;;;;;5013411;28;20340;-53
2023/04/21 05:28:50;;;;;;;5.63;3.83;;;23.10;99.90;;;;;;4995107;28;20403;-53
2023/04/21 05:31:16;;;;;;;5.53;3.83;;;23.10;99.90;;;;;;5013331;28;20053;-54
2023/04/21 05:33:41;;;;;;;5.20;3.67;;;23.10;99.90;;;;;;5012162;28;20014;-52
2023/04/21 05:36:08;;;;;;;6.45;4.35;;;23.00;99.90;;;;;;4995772;28;20427;-54
2023/04/21 05:38:35;;;;;;;5.10;3.50;;;23.00;99.90;;;;;;5012925;28;20018;-52
2023/04/21 05:41:01;;;;;;;5.20;4.05;;;23.00;99.90;;;;;;5013138;28;20084;-53
2023/04/21 05:43:27;;;;;;;6.18;3.92;;;23.00;99.90;;;;;;5012564;28;20033;-53
2023/04/21 05:45:53;;;;;;;6.10;3.63;;;23.00;99.90;;;;;;5013185;28;20022;-52
2023/04/21 05:48:18;;;;;;;6.50;4.15;;;23.00;99.90;;;;;;5012593;28;20439;-53
2023/04/21 05:50:44;;;;;;;5.93;3.83;;;23.00;99.90;;;;;;4995325;28;20093;-53
2023/04/21 05:53:10;;;;;;;4.85;3.30;;;23.00;99.90;;;;;;5012935;28;20030;-52
2023/04/21 05:55:36;;;;;;;5.40;3.88;;;23.00;99.90;;;;;;5012659;28;20022;-52
2023/04/21 05:58:03;;;;;;;5.13;3.53;;;23.00;99.90;;;;;;5012935;28;20475;-53
2023/04/21 06:00:29;;;;;;;6.32;4.40;;;23.00;99.90;;;;;;5012376;28;20133;-53
2023/04/21 06:02:54;;;;;;;8.30;4.50;;;23.00;99.90;;;;;;4994873;28;20036;-53
2023/04/21 06:05:20;;;;;;;7.68;3.38;;;23.00;99.90;;;;;;5012736;28;20108;-53
2023/04/21 06:07:46;;;;;;;6.03;3.53;;;23.00;99.90;;;;;;5012606;28;20029;-53
2023/04/21 06:10:13;;;;;;;5.55;3.35;;;23.00;99.90;;;;;;5012358;28;20375;-52
2023/04/21 06:12:39;;;;;;;7.55;4.28;;;23.00;99.90;;;;;;5012603;28;20029;-54
2023/04/21 06:15:05;;;;;;;4.95;3.15;;;23.00;99.90;;;;;;5012551;28;20044;-53
2023/04/21 06:17:31;;;;;;;4.68;3.15;;;23.00;99.90;;;;;;4995337;28;20109;-52
2023/04/21 06:19:57;;;;;;;5.00;3.47;;;23.00;99.90;;;;;;5012469;28;20049;-52
2023/04/21 06:22:23;;;;;;;5.43;3.15;;;23.00;99.90;;;;;;5012380;28;20017;-53
2023/04/21 06:24:49;;;;;;;4.80;3.38;;;23.00;99.90;;;;;;5012462;28;20515;-52
2023/04/21 06:27:15;;;;;;;6.35;3.85;;;23.00;99.90;;;;;;5012192;28;20097;-53
2023/04/21 06:29:41;;;;;;;5.30;3.60;;;23.00;99.90;;;;;;5012437;28;20475;-53
2023/04/21 06:32:08;;;;;;;5.15;3.25;;;23.00;99.90;;;;;;4994615;28;20379;-53
2023/04/21 06:34:34;;;;;;;6.60;3.80;;;23.00;99.90;;;;;;5012412;28;20080;-52
2023/04/21 06:37:00;;;;;;;6.88;3.80;;;23.00;99.90;;;;;;5012159;28;20061;-53
2023/04/21 06:39:26;;;;;;;6.20;3.08;;;23.00;99.90;;;;;;5011980;28;20472;-54
2023/04/21 06:41:52;;;;;;;7.82;3.83;;;23.00;99.90;;;;;;5012091;28;20060;-52
2023/04/21 06:44:18;;;;;;;5.18;3.58;;;23.00;99.90;;;;;;5012284;28;20475;-53
2023/04/21 06:46:44;;;;;;;6.82;3.88;;;23.00;99.90;;;;;;5012089;28;20054;-53
2023/04/21 06:49:10;;;;;;;6.00;3.50;;;23.00;99.90;;;;;;5011958;28;20438;-52
2023/04/21 06:51:36;;;;;;;6.35;4.47;;;23.00;99.90;;;;;;5012100;28;20022;-51
2023/04/21 06:54:02;;;;;;;7.28;4.07;;;23.00;99.90;;;;;;5011570;28;20026;-51
2023/04/21 06:56:29;;;;;;;6.25;3.63;;;23.00;99.90;;;;;;5011906;28;20045;-52
2023/04/21 06:58:55;;;;;;;6.38;3.92;;;23.00;99.90;;;;;;5011493;28;20022;-52
2023/04/21 07:01:23;;;;;;;6.18;3.50;;;23.00;99.90;;;;;;5010589;28;20060;-52
2023/04/21 07:03:49;;;;;;;6.10;3.78;;;23.00;99.90;;;;;;5011242;28;20025;-52
2023/04/21 07:06:15;;;;;;;6.95;3.58;;;23.00;99.90;;;;;;4993872;28;20041;-51
2023/04/21 07:08:40;;;;;;;5.72;3.30;;;23.00;99.90;;;;;;4994058;28;20098;-50
2023/04/21 07:11:06;;;;;;;6.78;4.10;;;23.00;99.90;;;;;;5011983;28;20076;-51
2023/04/21 07:13:32;;;;;;;4.80;3.10;;;23.00;99.90;;;;;;5011293;28;20021;-50
2023/04/21 07:15:58;;;;;;;6.28;3.47;;;23.00;99.90;;;;;;4994419;28;20025;-51
2023/04/21 07:18:24;;;;;;;5.47;3.22;;;23.00;99.90;;;;;;5011758;28;20022;-50
2023/04/21 07:20:50;;;;;;;5.50;3.65;;;23.00;99.90;;;;;;5011847;28;20034;-52
2023/04/21 07:23:16;;;;;;;6.45;3.72;;;23.10;99.90;;;;;;5012285;28;20041;-53
2023/04/21 07:25:41;;;;;;;5.30;3.53;;;23.10;99.90;;;;;;5011683;28;20475;-51
2023/04/21 07:28:07;;;;;;;4.95;3.53;;;23.00;99.90;;;;;;5012057;28;20030;-53
2023/04/21 07:30:33;;;;;;;7.32;3.58;;;23.10;99.90;;;;;;5011619;28;20432;-50
2023/04/21 07:32:59;;;;;;;6.65;3.92;;;23.10;99.90;;;;;;5011901;28;20064;-51
2023/04/21 07:35:25;;;;;;;6.25;4.28;;;23.10;99.90;;;;;;5011385;28;20022;-51
2023/04/21 07:37:51;;;;;;;6.75;3.90;;;23.10;99.90;;;;;;5011696;28;20029;-52
2023/04/21 07:40:17;;;;;;;6.43;3.75;;;23.10;99.90;;;;;;5011509;28;20038;-51
2023/04/21 07:42:42;;;;;;;6.30;4.10;;;23.10;99.90;;;;;;5011739;28;20097;-53
2023/04/21 07:45:09;;;;;;;5.78;3.70;;;23.10;99.90;;;;;;4993797;28;20030;-53
2023/04/21 07:47:34;;;;;;;5.70;3.45;;;23.20;99.90;;;;;;4993836;28;20014;-53
2023/04/21 07:50:00;;;;;;;7.55;4.20;;;23.20;99.90;;;;;;5011369;28;20584;-52
2023/04/21 07:52:26;;;;;;;6.85;4.63;;;23.20;99.90;;;;;;4994063;28;20021;-51
2023/04/21 07:54:52;;;;;;;9.20;4.22;;;23.20;99.90;;;;;;5011444;28;20036;-51
2023/04/21 07:57:18;;;;;;;5.72;4.15;;;23.20;99.90;;;;;;5012559;28;20407;-50
2023/04/21 07:59:43;;;;;;;5.28;3.80;;;23.20;99.90;;;;;;5014898;28;20076;-52
2023/04/21 08:02:09;;;;;;;7.82;3.85;;;23.20;99.90;;;;;;5015083;28;20018;-50
2023/04/21 08:04:35;;;;;;;6.93;4.20;;;23.20;99.90;;;;;;5014875;28;20026;-51
2023/04/21 08:07:01;;;;;;;7.00;3.97;;;23.20;99.90;;;;;;5014789;28;20478;-51
2023/04/21 08:09:27;;;;;;;6.10;3.83;;;23.20;99.90;;;;;;5014772;28;20037;-50
2023/04/21 08:11:53;;;;;;;7.90;4.78;;;23.20;99.90;;;;;;5014637;28;20081;-51
2023/04/21 08:14:20;;;;;;;5.10;3.95;;;23.20;99.90;;;;;;5014570;28;20037;-53
2023/04/21 08:16:46;;;;;;;6.72;4.38;;;23.20;99.90;;;;;;5014347;28;20049;-54
2023/04/21 08:19:11;;;;;;;8.68;4.10;;;23.20;99.90;;;;;;5014670;28;20030;-52
2023/04/21 08:21:38;;;;;;;9.73;5.25;;;23.20;99.90;;;;;;5014546;28;20025;-52
2023/04/21 08:24:04;;;;;;;7.47;4.15;;;23.20;99.90;;;;;;5014421;28;20018;-51
2023/04/21 08:26:32;;;;;;;5.40;3.95;;;23.30;99.90;;;;;;5014478;28;20049;-52
2023/04/21 08:28:59;;;;;;;7.10;4.72;;;23.30;99.90;;;;;;5013911;28;20479;-54
2023/04/21 08:31:25;;;;;;;6.17;4.07;;;23.30;99.90;;;;;;5014221;28;20044;-52
2023/04/21 08:33:50;;;;;;;5.75;3.83;;;23.30;99.90;;;;;;5013893;28;20030;-51
2023/04/21 08:36:16;;;;;;;6.93;4.38;;;23.30;99.90;;;;;;5014357;28;20030;-53
2023/04/21 08:38:45;;;;;;;7.30;4.53;;;23.30;99.90;;;;;;5014173;28;20022;-52
2023/04/21 08:41:12;;;;;;;7.88;4.38;;;23.30;99.90;;;;;;4996840;28;20140;-52
2023/04/21 08:43:38;;;;;;;6.10;4.33;;;23.30;99.90;;;;;;4996356;28;20025;-52
2023/04/21 08:46:07;;;;;;;6.10;4.03;;;23.30;99.90;;;;;;4996239;28;20083;-53
2023/04/21 08:48:37;;;;;;;7.57;5.28;;;23.30;99.90;;;;;;5013917;28;20033;-53
2023/04/21 08:51:11;;;;;;;6.53;4.55;;;23.30;99.90;;;;;;5014166;28;20057;-54
2023/04/21 08:53:40;;;;;;;6.93;4.13;;;23.30;99.90;;;;;;5013980;28;20025;-52
2023/04/21 08:56:06;;;;;;;7.75;4.85;;;23.30;99.90;;;;;;5013743;28;20022;-51
2023/04/21 08:58:32;;;;;;;8.20;4.72;;;23.30;99.90;;;;;;5013724;28;20033;-53
2023/04/21 09:00:57;;;;;;;9.18;5.20;;;23.40;99.90;;;;;;5013519;28;20046;-51
2023/04/21 09:03:26;;;;;;;8.40;5.47;;;23.40;99.90;;;;;;5013553;28;20030;-52
2023/04/21 09:06:01;;;;;;;7.80;5.25;;;23.40;99.90;;;;;;4988616;28;20032;-52
2023/04/21 09:08:31;;;;;;;7.28;4.85;;;23.40;99.90;;;;;;5012618;28;20080;-51
2023/04/21 09:10:58;;;;;;;7.72;4.55;;;23.40;99.90;;;;;;5013560;28;20014;-50
2023/04/21 09:13:37;;;;;;;7.63;4.60;;;23.40;99.90;;;;;;4995889;28;20538;-52
2023/04/21 09:16:13;;;;;;;10.85;5.03;;;23.40;99.90;;;;;;4989294;28;20044;-52
2023/04/21 09:18:39;;;;;;;9.98;4.65;;;23.40;99.90;;;;;;5013277;28;20361;-52
2023/04/21 09:21:16;;;;;;;9.15;4.65;;;23.40;99.90;;;;;;5013336;28;20064;-53
2023/04/21 09:23:44;;;;;;;8.25;5.40;;;23.40;99.90;;;;;;5013396;28;20029;-53
2023/04/21 09:26:10;;;;;;;7.53;4.38;;;23.40;99.90;;;;;;5013470;28;20041;-52
2023/04/21 09:28:39;;;;;;;10.57;4.93;;;23.40;99.90;;;;;;5013225;28;20034;-51
2023/04/21 09:31:19;;;;;;;8.55;5.30;;;23.50;99.90;;;;;;5012927;28;20614;-51
2023/04/21 09:33:57;;;;;;;9.57;4.63;;;23.50;99.90;;;;;;5013079;28;20076;-50
2023/04/21 09:36:26;;;;;;;10.05;5.05;;;23.50;99.90;;;;;;5012946;28;20124;-51
2023/04/21 09:39:00;;;;;;;10.43;4.80;;;23.50;99.90;;;;;;4995836;28;20395;-51
2023/04/21 09:41:26;;;;;;;7.93;4.95;;;23.50;99.90;;;;;;5013031;28;20495;-53
2023/04/21 09:43:52;;;;;;;9.85;4.78;;;23.50;99.90;;;;;;5012470;28;20026;-53
2023/04/21 09:46:20;;;;;;;9.30;4.80;;;23.50;99.90;;;;;;5012700;28;20112;-53
2023/04/21 09:48:47;;;;;;;10.45;5.30;;;23.50;99.90;;;;;;5012918;28;20022;-53
2023/04/21 09:51:14;;;;;;;12.27;4.32;;;23.50;99.90;;;;;;5013337;28;20104;-53
2023/04/21 09:53:41;;;;;;;8.88;4.63;;;23.50;99.90;;;;;;5012793;28;20491;-52
2023/04/21 09:56:13;;;;;;;10.57;4.70;;;23.50;99.90;;;;;;5012948;28;20025;-50
2023/04/21 09:59:00;;;;;;;8.98;4.72;;;23.60;99.90;;;;;;5012740;28;20506;-53
2023/04/21 10:01:28;;;;;;;11.65;5.15;;;23.60;99.90;;;;;;5012540;28;20145;-54
2023/04/21 10:03:54;;;;;;;11.45;5.35;;;23.60;99.90;;;;;;5012374;28;20069;-55
2023/04/21 10:06:21;;;;;;;10.77;5.40;;;23.60;99.90;;;;;;4995265;28;20328;-52
2023/04/21 10:08:49;;;;;;;10.55;5.28;;;23.60;99.90;;;;;;4995281;28;20415;-54
2023/04/21 10:11:16;;;;;;;10.27;5.30;;;23.60;99.90;;;;;;5012940;28;20037;-53
2023/04/21 10:13:42;;;;;;;11.70;6.13;;;23.60;99.90;;;;;;5012323;28;20060;-53
2023/04/21 10:16:09;;;;;;;11.18;5.35;;;23.60;99.90;;;;;;5012131;28;20375;-51
2023/04/21 10:18:42;;;;;;;12.13;5.90;;;23.60;99.90;;;;;;4995057;28;20025;-54
2023/04/21 10:21:20;;;;;;;11.02;6.05;;;23.60;99.90;;;;;;4994333;28;20034;-53
2023/04/21 10:23:47;;;;;;;14.98;6.65;;;23.60;99.90;;;;;;5012448;28;20022;-53
2023/04/21 10:26:14;;;;;;;10.60;5.97;;;23.70;99.90;;;;;;5012384;28;20140;-54
2023/04/21 10:29:01;;;;;;;11.10;5.57;;;23.70;99.90;;;;;;5012097;28;20033;-54
2023/04/21 10:31:34;;;;;;;15.00;6.95;;;23.70;99.90;;;;;;5012429;28;20021;-53
2023/04/21 10:36:33;;;;;;;15.02;6.45;;;23.70;99.90;;;;;;5012261;28;20172;-53
2023/04/21 10:39:03;;;;;;;8.68;5.82;;;23.70;99.90;;;;;;5012063;28;20022;-53
2023/04/21 10:41:33;;;;;;;17.20;6.75;;;23.70;99.90;;;;;;5012188;28;20034;-52
2023/04/21 10:44:20;;;;;;;12.88;6.30;;;23.80;99.90;;;;;;4994501;28;20026;-53
2023/04/21 10:46:48;;;;;;;10.30;5.68;;;23.70;99.90;;;;;;4994478;28;20099;-53
2023/04/21 10:49:21;;;;;;;12.32;6.50;;;23.80;99.90;;;;;;5012048;28;20105;-53
2023/04/21 10:54:44;;;;;;;12.98;6.07;;;23.80;99.90;;;;;;5011828;28;20029;-53
2023/04/21 10:57:12;;;;;;;17.23;6.57;;;23.80;99.90;;;;;;4994734;28;20057;-53
2023/04/21 10:59:39;;;;;;;10.75;5.68;;;23.80;99.90;;;;;;5011611;28;21200;-51
2023/04/21 11:02:06;;;;;;;13.63;6.70;;;23.90;99.90;;;;;;4994460;28;20037;-52
2023/04/21 11:04:32;;;;;;;11.82;6.60;;;23.90;99.90;;;;;;5011965;28;20109;-53
2023/04/21 11:07:09;;;;;;;11.73;6.88;;;23.90;99.90;;;;;;4993927;28;20549;-54
2023/04/21 11:09:36;;;;;;;13.48;6.32;;;23.90;99.90;;;;;;5011915;28;20026;-52
2023/04/21 11:12:06;;;;;;;12.60;6.05;;;23.90;99.90;;;;;;5011802;28;20033;-53
2023/04/21 11:14:34;;;;;;;16.05;7.45;;;23.90;99.90;;;;;;4994783;28;20053;-52
2023/04/21 11:17:00;;;;;;;12.45;6.00;;;24.00;99.90;;;;;;5011770;28;20033;-51
2023/04/21 11:19:26;;;;;;;11.82;6.10;;;23.90;99.90;;;;;;5008986;28;20476;-52
2023/04/21 11:21:53;;;;;;;11.77;6.60;;;23.90;99.90;;;;;;5011966;28;20037;-52
2023/04/21 11:24:20;;;;;;;15.15;6.65;;;24.00;99.90;;;;;;5011755;28;20406;-52
2023/04/21 11:26:46;;;;;;;13.48;7.47;;;24.00;99.90;;;;;;5011929;28;20030;-51
2023/04/21 11:29:13;;;;;;;13.13;6.50;;;24.10;99.90;;;;;;4993978;28;20018;-50
2023/04/21 11:31:41;;;;;;;12.23;6.10;;;24.10;99.90;;;;;;5012140;28;20022;-50
2023/04/21 11:34:07;;;;;;;15.00;7.00;;;24.10;99.90;;;;;;5015435;28;20020;-51
2023/04/21 11:36:34;;;;;;;13.98;6.93;;;24.10;99.90;;;;;;4997918;28;20113;-51
2023/04/21 11:39:07;;;;;;;10.07;5.72;;;24.10;99.90;;;;;;5015082;28;20033;-51
2023/04/21 11:41:33;;;;;;;13.98;8.55;;;24.10;99.90;;;;;;5015135;28;20026;-51
2023/04/21 11:43:58;;;;;;;17.65;6.60;;;24.10;99.90;;;;;;5015241;28;20068;-51
2023/04/21 11:46:26;;;;;;;11.75;6.13;;;24.10;99.90;;;;;;4997672;28;20065;-51
2023/04/21 11:48:59;;;;;;;;;;;24.10;99.90;;;;;;5015463;28;20022;-51
2023/04/21 11:51:26;;;;;;;25.83;9.02;;;24.20;99.90;;;;;;4997817;28;20426;-51
2023/04/21 11:53:52;;;;;;;13.95;6.25;;;24.20;99.90;;;;;;5014984;28;20117;-51
2023/04/21 11:56:21;;;;;;;12.20;6.20;;;24.20;99.90;;;;;;5015080;28;20112;-52
2023/04/21 11:58:51;;;;;;;16.70;7.15;;;24.20;99.90;;;;;;5015079;28;20037;-51
2023/04/21 12:01:17;;;;;;;16.08;6.78;;;24.20;99.90;;;;;;5014790;28;20076;-50
2023/04/21 12:03:51;;;;;;;16.52;6.80;;;24.20;99.90;;;;;;5014629;28;20018;-51
2023/04/21 12:06:25;;;;;;;11.10;5.50;;;24.30;99.90;;;;;;5015029;28;20029;-51
2023/04/21 12:09:01;;;;;;;12.60;6.10;;;24.20;99.90;;;;;;5015107;28;20065;-51
2023/04/21 12:11:29;;;;;;;15.18;7.07;;;24.30;99.90;;;;;;4997223;28;20026;-50
2023/04/21 12:13:58;;;;;;;12.10;6.45;;;24.30;99.90;;;;;;5014840;28;20022;-50
2023/04/21 12:16:28;;;;;;;12.68;7.20;;;24.30;99.90;;;;;;5014809;28;20484;-50
2023/04/21 12:18:55;;;;;;;12.65;6.75;;;24.30;99.90;;;;;;4997664;28;20026;-50
2023/04/21 12:21:25;;;;;;;10.93;6.45;;;24.30;99.90;;;;;;5014701;28;20060;-50
2023/04/21 12:23:51;;;;;;;9.15;5.65;;;24.30;99.90;;;;;;5014654;28;20037;-50
2023/04/21 12:26:17;;;;;;;11.82;5.88;;;24.30;99.90;;;;;;5014503;28;20026;-51
2023/04/21 12:28:43;;;;;;;12.85;7.07;;;24.40;99.90;;;;;;5014328;28;20036;-51
2023/04/21 12:31:09;;;;;;;15.73;6.75;;;24.40;99.90;;;;;;5013967;28;20390;-50
2023/04/21 12:33:35;;;;;;;9.45;6.35;;;24.40;99.90;;;;;;5014191;28;20057;-51
2023/04/21 12:36:01;;;;;;;12.25;6.40;;;24.40;99.90;;;;;;4996900;28;20018;-51
2023/04/21 12:38:27;;;;;;;12.88;6.75;;;24.40;99.90;;;;;;5014496;28;20033;-51
2023/04/21 12:40:53;;;;;;;11.60;5.82;;;24.40;99.90;;;;;;5014455;28;20029;-51
2023/04/21 12:43:18;;;;;;;11.93;6.93;;;24.50;99.90;;;;;;5013997;28;20378;-51
2023/04/21 12:45:44;;;;;;;10.55;6.05;;;24.50;99.90;;;;;;5013834;28;20030;-51
2023/04/21 12:48:10;;;;;;;10.77;5.72;;;24.50;99.90;;;;;;5014088;28;20040;-51